createdAt,value
2022-10-22T00:00:00.001Z,1.40
2022-10-22T00:02:27.897Z,1.73
2022-10-22T00:04:57.121Z,1.63
2022-10-22T00:07:24.467Z,1.20
2022-10-22T00:09:51.350Z,1.55
2022-10-22T00:12:18.284Z,1.30
2022-10-22T00:14:45.130Z,1.23
2022-10-22T00:17:12.177Z,1.90
2022-10-22T00:19:39.727Z,1.60
2022-10-22T00:22:06.850Z,1.55
2022-10-22T00:24:33.863Z,1.48
2022-10-22T00:27:00.865Z,1.35
2022-10-22T00:29:27.776Z,1.85
2022-10-22T00:34:24.708Z,1.23
2022-10-22T00:36:51.795Z,1.30
2022-10-22T00:39:22.138Z,1.45
2022-10-22T00:41:49.485Z,1.50
2022-10-22T00:44:35.164Z,1.35
2022-10-22T00:47:01.903Z,1.27
2022-10-22T00:49:28.796Z,1.40
2022-10-22T00:51:55.728Z,1.38
2022-10-22T00:54:22.533Z,1.48
2022-10-22T00:56:49.378Z,1.58
2022-10-22T00:59:17.031Z,1.83
2022-10-22T01:01:45.239Z,1.77
2022-10-22T01:04:12.002Z,1.60
2022-10-22T01:06:38.804Z,1.67
2022-10-22T01:09:11.567Z,1.42
2022-10-22T01:11:50.719Z,1.58
2022-10-22T01:14:21.039Z,1.73
2022-10-22T01:17:06.409Z,1.98
2022-10-22T01:19:43.626Z,1.58
2022-10-22T01:22:16.219Z,1.60
2022-10-22T01:24:56.179Z,1.88
2022-10-22T01:27:42.460Z,1.42
2022-10-22T01:30:13.877Z,1.65
2022-10-22T01:32:46.207Z,2.00
2022-10-22T01:35:15.730Z,2.28
2022-10-22T01:37:50.971Z,1.80
2022-10-22T01:40:18.785Z,1.75
2022-10-22T01:42:58.888Z,1.83
2022-10-22T01:45:26.096Z,1.52
2022-10-22T01:47:55.697Z,1.52
2022-10-22T01:50:22.419Z,2.20
2022-10-22T01:53:11.949Z,1.40
2022-10-22T01:55:48.022Z,1.55
2022-10-22T01:58:32.968Z,1.90
2022-10-22T02:01:05.742Z,1.92
2022-10-22T02:03:39.759Z,2.35
2022-10-22T02:06:09.970Z,1.70
2022-10-22T02:08:37.203Z,1.52
2022-10-22T02:11:04.983Z,1.67
2022-10-22T02:13:36.472Z,1.90
2022-10-22T02:16:04.426Z,1.60
2022-10-22T02:18:38.759Z,1.88
2022-10-22T02:23:39.023Z,1.63
2022-10-22T02:26:13.755Z,1.50
2022-10-22T02:28:49.017Z,2.08
2022-10-22T02:31:19.828Z,1.48
2022-10-22T02:33:48.407Z,1.63
2022-10-22T02:36:16.434Z,1.13
2022-10-22T02:38:43.477Z,1.15
2022-10-22T02:41:10.520Z,1.20
2022-10-22T02:43:42.193Z,1.48
2022-10-22T02:46:09.615Z,1.27
2022-10-22T02:48:36.433Z,1.20
2022-10-22T02:51:03.622Z,1.60
2022-10-22T02:53:30.393Z,1.60
2022-10-22T02:55:57.192Z,1.30
2022-10-22T02:58:23.943Z,1.02
2022-10-22T03:00:51.047Z,1.30
2022-10-22T03:03:17.910Z,1.45
2022-10-22T03:05:44.723Z,1.30
2022-10-22T03:08:11.522Z,1.15
2022-10-22T03:10:38.281Z,1.10
2022-10-22T03:13:05.051Z,1.20
2022-10-22T03:15:31.817Z,1.00
2022-10-22T03:17:58.740Z,1.20
2022-10-22T03:20:25.522Z,1.20
2022-10-22T03:22:52.649Z,1.33
2022-10-22T03:25:24.048Z,1.13
2022-10-22T03:30:17.583Z,1.10
2022-10-22T03:32:44.354Z,1.30
2022-10-22T03:35:11.143Z,0.95
2022-10-22T03:37:38.234Z,0.98
2022-10-22T03:40:06.435Z,1.00
2022-10-22T03:42:33.359Z,0.80
2022-10-22T03:45:00.148Z,0.80
2022-10-22T03:47:27.580Z,0.90
2022-10-22T03:49:54.387Z,1.10
2022-10-22T03:52:21.216Z,0.75
2022-10-22T03:54:47.924Z,0.95
2022-10-22T03:57:14.693Z,0.98
2022-10-22T03:59:42.579Z,1.05
2022-10-22T04:02:09.965Z,0.90
2022-10-22T04:04:37.278Z,1.02
2022-10-22T04:07:05.057Z,1.30
2022-10-22T04:09:32.639Z,1.10
2022-10-22T04:11:59.505Z,1.30
2022-10-22T04:14:26.604Z,1.20
2022-10-22T04:16:53.378Z,0.88
2022-10-22T04:19:20.192Z,0.98
2022-10-22T04:21:46.979Z,0.98
2022-10-22T04:24:13.710Z,1.27
2022-10-22T04:26:40.506Z,0.93
2022-10-22T04:29:11.862Z,1.20
2022-10-22T04:31:41.930Z,1.08
2022-10-22T04:34:08.727Z,1.20
2022-10-22T04:36:35.494Z,1.10
2022-10-22T04:39:02.674Z,1.20
2022-10-22T04:41:31.483Z,1.85
2022-10-22T04:43:58.861Z,1.55
2022-10-22T04:46:26.961Z,1.58
2022-10-22T04:48:53.974Z,1.30
2022-10-22T04:51:21.330Z,0.88
2022-10-22T04:53:48.189Z,1.30
2022-10-22T04:56:16.390Z,1.50
2022-10-22T04:58:43.966Z,1.55
2022-10-22T05:01:15.572Z,1.35
2022-10-22T05:03:42.769Z,1.50
2022-10-22T05:06:09.774Z,1.20
2022-10-22T05:08:37.049Z,1.45
2022-10-22T05:11:11.076Z,1.30
2022-10-22T05:13:37.822Z,1.40
2022-10-22T05:16:04.793Z,1.25
2022-10-22T05:18:33.569Z,0.95
2022-10-22T05:21:00.313Z,1.10
2022-10-22T05:23:28.176Z,1.20
2022-10-22T05:25:54.978Z,1.30
2022-10-22T05:28:21.722Z,1.10
2022-10-22T05:30:58.318Z,0.90
2022-10-22T05:33:25.266Z,1.00
2022-10-22T05:35:52.396Z,1.02
2022-10-22T05:38:19.230Z,1.10
2022-10-22T05:40:46.117Z,1.20
2022-10-22T05:43:13.372Z,1.15
2022-10-22T05:45:40.734Z,1.20
2022-10-22T05:48:08.234Z,1.13
2022-10-22T05:50:38.535Z,1.20
2022-10-22T05:53:05.705Z,1.10
2022-10-22T05:55:40.602Z,1.45
2022-10-22T05:58:07.563Z,1.73
2022-10-22T06:00:34.795Z,1.48
2022-10-22T06:03:01.533Z,1.65
2022-10-22T06:05:28.370Z,1.33
2022-10-22T06:07:55.907Z,1.67
2022-10-22T06:10:22.915Z,1.92
2022-10-22T06:12:50.190Z,1.30
2022-10-22T06:15:18.152Z,1.63
2022-10-22T06:17:45.563Z,1.58
2022-10-22T06:20:12.904Z,2.10
2022-10-22T06:22:40.003Z,1.58
2022-10-22T06:25:08.464Z,1.50
2022-10-22T06:27:35.294Z,1.77
2022-10-22T06:30:02.092Z,1.42
2022-10-22T06:32:28.849Z,2.00
2022-10-22T06:34:55.650Z,2.35
2022-10-22T06:37:22.371Z,1.52
2022-10-22T06:39:49.134Z,2.05
2022-10-22T06:42:15.949Z,1.80
2022-10-22T06:44:42.708Z,1.60
2022-10-22T06:47:09.443Z,1.35
2022-10-22T06:49:36.251Z,1.60
2022-10-22T06:52:03.024Z,1.30
2022-10-22T06:54:29.784Z,1.67
2022-10-22T06:56:56.604Z,1.83
2022-10-22T06:59:23.391Z,1.38
2022-10-22T07:01:50.324Z,1.63
2022-10-22T07:04:17.228Z,2.13
2022-10-22T07:06:44.012Z,1.75
2022-10-22T07:09:11.204Z,1.40
2022-10-22T07:11:42.011Z,1.90
2022-10-22T07:14:08.842Z,1.65
2022-10-22T07:16:35.746Z,1.92
2022-10-22T07:19:03.616Z,1.80
2022-10-22T07:21:30.753Z,1.75
2022-10-22T07:23:57.874Z,2.13
2022-10-22T07:26:25.480Z,1.60
2022-10-22T07:28:52.259Z,2.22
2022-10-22T07:31:19.603Z,2.42
2022-10-22T07:33:46.421Z,1.88
2022-10-22T07:36:17.985Z,1.80
2022-10-22T07:38:46.069Z,1.85
2022-10-22T07:41:13.383Z,1.90
2022-10-22T07:43:40.176Z,1.75
2022-10-22T07:46:08.718Z,2.25
2022-10-22T07:48:36.014Z,1.90
2022-10-22T07:51:02.806Z,2.00
2022-10-22T07:53:29.956Z,2.20
2022-10-22T07:55:56.937Z,2.20
2022-10-22T07:58:23.864Z,1.55
2022-10-22T08:00:51.461Z,2.33
2022-10-22T08:03:18.570Z,1.85
2022-10-22T08:05:45.462Z,2.00
2022-10-22T08:08:12.859Z,2.00
2022-10-22T08:10:39.784Z,2.10
2022-10-22T08:13:06.919Z,2.00
2022-10-22T08:15:33.698Z,1.73
2022-10-22T08:18:00.540Z,1.70
2022-10-22T08:20:27.274Z,1.73
2022-10-22T08:22:54.167Z,1.80
2022-10-22T08:25:21.258Z,1.55
2022-10-22T08:27:48.043Z,1.83
2022-10-22T08:30:14.943Z,1.20
2022-10-22T08:32:41.937Z,1.50
2022-10-22T08:35:09.842Z,1.38
2022-10-22T08:37:37.275Z,1.52
2022-10-22T08:40:04.724Z,1.40
2022-10-22T08:42:37.358Z,1.60
2022-10-22T08:45:23.124Z,1.70
2022-10-22T08:47:59.307Z,1.67
2022-10-22T08:50:37.726Z,1.52
2022-10-22T08:53:12.422Z,1.38
2022-10-22T08:55:40.538Z,1.80
2022-10-22T08:58:33.459Z,1.77
2022-10-22T09:01:02.011Z,1.58
2022-10-22T09:03:31.806Z,1.90
2022-10-22T09:06:13.547Z,1.75
2022-10-22T09:08:42.356Z,1.70
2022-10-22T09:11:12.249Z,1.60
2022-10-22T09:13:40.878Z,1.35
2022-10-22T09:16:30.626Z,1.45
2022-10-22T09:19:05.639Z,1.83
2022-10-22T09:21:41.638Z,1.85
2022-10-22T09:24:13.149Z,1.92
2022-10-22T09:29:07.182Z,2.33
2022-10-22T09:31:34.432Z,1.58
2022-10-22T09:34:06.124Z,1.38
2022-10-22T09:36:33.017Z,1.88
2022-10-22T09:39:00.602Z,2.17
2022-10-22T09:41:29.807Z,1.98
2022-10-22T09:43:57.170Z,1.85
2022-10-22T09:46:25.256Z,1.67
2022-10-22T09:48:59.998Z,1.92
2022-10-22T09:51:38.007Z,1.80
2022-10-22T09:54:14.596Z,1.77
2022-10-22T09:56:42.158Z,1.70
2022-10-22T09:59:15.947Z,1.85
2022-10-22T10:01:44.493Z,1.85
2022-10-22T10:04:12.734Z,1.55
2022-10-22T10:06:40.673Z,1.83
2022-10-22T10:09:15.795Z,1.42
2022-10-22T10:11:46.905Z,1.77
2022-10-22T10:14:16.653Z,1.65
2022-10-22T10:16:59.093Z,2.25
2022-10-22T10:19:31.709Z,1.48
2022-10-22T10:22:14.414Z,1.65
2022-10-22T10:24:41.179Z,1.63
2022-10-22T10:27:10.749Z,1.42
2022-10-22T10:29:58.529Z,1.60
2022-10-22T10:32:40.884Z,1.67
2022-10-22T10:35:17.578Z,1.58
2022-10-22T10:40:40.808Z,1.23
2022-10-22T10:43:13.461Z,2.28
2022-10-22T10:45:46.101Z,1.80
2022-10-22T10:48:12.991Z,1.65
2022-10-22T10:50:39.724Z,1.67
2022-10-22T10:53:32.985Z,1.65
2022-10-22T10:56:03.373Z,1.30
2022-10-22T10:58:39.336Z,1.45
2022-10-22T11:01:12.774Z,1.50
2022-10-22T11:03:45.752Z,2.17
2022-10-22T11:06:15.145Z,1.42
2022-10-22T11:08:55.153Z,1.40
2022-10-22T11:11:26.713Z,2.03
2022-10-22T11:13:57.375Z,1.40
2022-10-22T11:16:24.138Z,1.30
2022-10-22T11:18:58.022Z,1.50
2022-10-22T11:21:24.740Z,1.90
2022-10-22T11:23:54.987Z,1.50
2022-10-22T11:26:33.921Z,1.20
2022-10-22T11:29:02.871Z,1.55
2022-10-22T11:31:30.369Z,2.10
2022-10-22T11:34:33.270Z,1.40
2022-10-22T11:37:01.378Z,1.92
2022-10-22T11:39:45.860Z,1.13
2022-10-22T11:42:18.739Z,1.70
2022-10-22T11:44:46.796Z,1.60
2022-10-22T11:47:17.598Z,1.55
2022-10-22T11:49:58.554Z,1.33
2022-10-22T11:52:39.221Z,1.50
2022-10-22T11:55:25.981Z,1.48
2022-10-22T11:57:56.763Z,1.45
2022-10-22T12:00:29.435Z,1.42
2022-10-22T12:03:16.906Z,1.50
2022-10-22T12:05:44.431Z,1.40
2022-10-22T12:08:24.906Z,1.27
2022-10-22T12:11:00.229Z,1.80
2022-10-22T12:13:47.213Z,1.60
2022-10-22T12:16:14.933Z,1.52
2022-10-22T12:18:45.658Z,1.60
2022-10-22T12:21:14.093Z,1.13
2022-10-22T12:23:41.100Z,1.80
2022-10-22T12:26:22.632Z,1.10
2022-10-22T12:28:49.406Z,1.23
2022-10-22T12:31:16.770Z,1.45
2022-10-22T12:33:43.682Z,1.60
2022-10-22T12:36:17.957Z,1.10
2022-10-22T12:38:47.939Z,1.63
2022-10-22T12:41:14.986Z,1.40
2022-10-22T12:43:41.745Z,1.08
2022-10-22T12:46:13.817Z,1.42
2022-10-22T12:48:42.412Z,1.17
2022-10-22T12:51:12.913Z,1.08
2022-10-22T12:53:43.196Z,1.25
2022-10-22T12:56:24.087Z,1.60
2022-10-22T12:59:05.407Z,1.10
2022-10-22T13:01:37.362Z,1.30
2022-10-22T13:04:13.196Z,1.08
2022-10-22T13:06:44.271Z,1.65
2022-10-22T13:09:23.939Z,1.60
2022-10-22T13:11:54.791Z,1.08
2022-10-22T13:14:32.476Z,1.10
2022-10-22T13:17:05.076Z,1.20
2022-10-22T13:19:42.863Z,1.00
2022-10-22T13:22:28.355Z,1.40
2022-10-22T13:27:28.427Z,1.13
2022-10-22T13:29:56.353Z,1.40
2022-10-22T13:32:31.108Z,0.93
2022-10-22T13:34:59.245Z,1.10
2022-10-22T13:37:26.227Z,1.10
2022-10-22T13:39:53.088Z,1.00
2022-10-22T13:42:19.918Z,0.90
2022-10-22T13:44:46.763Z,1.25
2022-10-22T13:47:33.789Z,1.48
2022-10-22T13:50:02.057Z,1.40
2022-10-22T13:52:31.447Z,1.30
2022-10-22T13:54:58.256Z,1.70
2022-10-22T13:57:25.229Z,1.10
2022-10-22T13:59:52.034Z,1.30
2022-10-22T14:02:19.349Z,1.40
2022-10-22T14:04:46.203Z,1.20
2022-10-22T14:07:16.581Z,1.90
2022-10-22T14:09:44.116Z,1.30
2022-10-22T14:12:15.180Z,1.75
2022-10-22T14:14:42.014Z,1.70
2022-10-22T14:17:11.905Z,1.35
2022-10-22T14:19:39.255Z,1.60
2022-10-22T14:22:08.232Z,1.80
2022-10-22T14:24:35.036Z,2.50
2022-10-22T14:27:01.797Z,3.35
2022-10-22T14:29:28.680Z,3.00
2022-10-22T14:31:56.326Z,2.88
2022-10-22T14:34:23.127Z,3.20
2022-10-22T14:36:50.004Z,2.60
2022-10-22T14:39:18.404Z,3.53
2022-10-22T14:41:45.235Z,2.10
2022-10-22T14:44:13.895Z,2.53
2022-10-22T14:46:42.781Z,1.90
2022-10-22T14:49:09.631Z,2.10
2022-10-22T14:51:36.386Z,2.20
2022-10-22T14:54:03.174Z,1.70
2022-10-22T14:56:29.982Z,1.48
2022-10-22T14:58:56.758Z,1.27
2022-10-22T15:01:23.606Z,1.33
2022-10-22T15:03:50.395Z,1.40
2022-10-22T15:06:17.616Z,1.60
2022-10-22T15:08:44.978Z,1.52
2022-10-22T15:11:12.478Z,1.33
2022-10-22T15:13:41.279Z,1.30
2022-10-22T15:16:09.397Z,1.80
2022-10-22T15:18:36.434Z,1.63
2022-10-22T15:21:07.989Z,2.08
2022-10-22T15:23:36.038Z,1.50
2022-10-22T15:26:02.983Z,2.38
2022-10-22T15:28:29.743Z,2.63
2022-10-22T15:30:57.791Z,2.55
2022-10-22T15:33:24.976Z,2.20
2022-10-22T15:35:52.027Z,2.10
2022-10-22T15:38:18.858Z,2.97
2022-10-22T15:40:45.844Z,2.17
2022-10-22T15:43:12.786Z,2.45
2022-10-22T15:45:39.595Z,2.45
2022-10-22T15:48:06.474Z,2.10
2022-10-22T15:50:36.988Z,1.80
2022-10-22T15:53:03.759Z,1.73
2022-10-22T15:55:30.508Z,1.73
2022-10-22T15:57:59.379Z,3.47
2022-10-22T16:00:28.719Z,3.35
2022-10-22T16:02:55.465Z,3.53
2022-10-22T16:05:22.239Z,2.92
2022-10-22T16:07:49.892Z,3.60
2022-10-22T16:10:16.767Z,3.90
2022-10-22T16:12:43.790Z,3.00
2022-10-22T16:15:10.935Z,3.92
2022-10-22T16:17:37.840Z,3.50
2022-10-22T16:20:04.865Z,3.10
2022-10-22T16:22:32.359Z,2.78
2022-10-22T16:24:59.177Z,2.08
2022-10-22T16:27:26.057Z,1.83
2022-10-22T16:29:52.820Z,2.03
2022-10-22T16:32:19.582Z,2.00
2022-10-22T16:34:46.346Z,2.08
2022-10-22T16:37:13.135Z,2.00
2022-10-22T16:39:39.922Z,2.33
2022-10-22T16:42:06.768Z,2.20
2022-10-22T16:44:33.568Z,2.08
2022-10-22T16:47:01.061Z,2.30
2022-10-22T16:49:27.943Z,2.58
2022-10-22T16:51:54.762Z,2.20
2022-10-22T16:54:21.966Z,2.00
2022-10-22T16:56:48.870Z,2.33
2022-10-22T16:59:15.648Z,2.40
2022-10-22T17:01:42.436Z,1.90
2022-10-22T17:04:09.331Z,2.00
2022-10-22T17:06:36.208Z,1.48
2022-10-22T17:09:03.237Z,1.60
2022-10-22T17:11:34.812Z,2.03
2022-10-22T17:14:02.508Z,1.80
2022-10-22T17:16:29.343Z,1.60
2022-10-22T17:18:56.657Z,2.20
2022-10-22T17:21:23.799Z,1.75
2022-10-22T17:23:54.489Z,2.30
2022-10-22T17:26:22.686Z,2.10
2022-10-22T17:28:49.881Z,2.20
2022-10-22T17:31:19.491Z,2.25
2022-10-22T17:33:46.939Z,2.20
2022-10-22T17:36:14.141Z,2.10
2022-10-22T17:38:41.287Z,2.17
2022-10-22T17:41:10.408Z,2.17
2022-10-22T17:43:40.730Z,1.98
2022-10-22T17:46:08.540Z,2.22
2022-10-22T17:48:35.347Z,2.17
2022-10-22T17:51:06.816Z,2.08
2022-10-22T17:53:33.603Z,2.47
2022-10-22T17:56:01.659Z,2.13
2022-10-22T17:58:31.185Z,2.30
2022-10-22T18:00:58.242Z,2.30
2022-10-22T18:03:25.067Z,2.10
2022-10-22T18:05:51.938Z,2.60
2022-10-22T18:08:18.684Z,2.20
2022-10-22T18:10:45.458Z,2.17
2022-10-22T18:13:12.288Z,2.78
2022-10-22T18:15:39.031Z,2.55
2022-10-22T18:18:05.835Z,2.67
2022-10-22T18:20:32.854Z,1.98
2022-10-22T18:22:59.639Z,2.00
2022-10-22T18:25:26.519Z,2.70
2022-10-22T18:27:53.364Z,2.13
2022-10-22T18:30:20.198Z,2.30
2022-10-22T18:32:46.935Z,2.15
2022-10-22T18:35:14.009Z,2.17
2022-10-22T18:37:41.065Z,2.17
2022-10-22T18:40:12.468Z,2.60
2022-10-22T18:42:41.428Z,2.20
2022-10-22T18:45:08.598Z,2.10
2022-10-22T18:47:39.251Z,2.40
2022-10-22T18:50:06.229Z,2.40
2022-10-22T18:52:33.123Z,2.20
2022-10-22T18:54:59.892Z,2.15
2022-10-22T18:57:26.659Z,2.40
2022-10-22T18:59:55.825Z,2.33
2022-10-22T19:02:25.441Z,2.30
2022-10-22T19:04:52.242Z,2.60
2022-10-22T19:07:18.994Z,2.60
2022-10-22T19:09:45.758Z,2.55
2022-10-22T19:12:15.080Z,2.70
2022-10-22T19:14:42.550Z,2.85
2022-10-22T19:17:09.353Z,2.92
2022-10-22T19:19:36.179Z,2.97
2022-10-22T19:22:02.954Z,2.70
2022-10-22T19:24:29.802Z,3.17
2022-10-22T19:26:56.603Z,3.10
2022-10-22T19:29:23.409Z,3.45
2022-10-22T19:31:51.067Z,3.42
2022-10-22T19:34:18.123Z,3.03
2022-10-22T19:36:44.899Z,3.67
2022-10-22T19:39:14.463Z,3.05
2022-10-22T19:41:41.437Z,3.75
2022-10-22T19:44:09.396Z,3.28
2022-10-22T19:46:36.418Z,3.33
2022-10-22T19:49:04.434Z,3.10
2022-10-22T19:51:33.388Z,3.10
2022-10-22T19:54:01.586Z,3.10
2022-10-22T19:56:28.858Z,3.20
2022-10-22T19:58:55.804Z,3.10
2022-10-22T20:01:23.045Z,2.90
2022-10-22T20:03:49.909Z,3.35
2022-10-22T20:06:17.510Z,3.00
2022-10-22T20:08:44.315Z,3.03
2022-10-22T20:11:19.639Z,3.13
2022-10-22T20:13:51.133Z,3.40
2022-10-22T20:16:28.117Z,3.08
2022-10-22T20:18:55.393Z,2.97
2022-10-22T20:21:22.220Z,4.60
2022-10-22T20:23:52.110Z,3.97
2022-10-22T20:26:19.447Z,5.00
2022-10-22T20:28:46.366Z,4.72
2022-10-22T20:31:14.960Z,4.15
2022-10-22T20:33:41.939Z,12.80
2022-10-22T20:36:12.813Z,8.38
2022-10-22T20:38:39.627Z,5.85
2022-10-22T20:41:08.225Z,7.10
2022-10-22T20:43:34.974Z,7.13
2022-10-22T20:46:01.915Z,6.90
2022-10-22T20:48:31.365Z,6.20
2022-10-22T20:50:59.051Z,5.68
2022-10-22T20:53:26.139Z,5.38
2022-10-22T20:55:54.773Z,4.75
2022-10-22T20:58:24.510Z,4.78
2022-10-22T21:00:54.682Z,4.63
2022-10-22T21:03:21.602Z,4.43
2022-10-22T21:05:48.540Z,3.80
2022-10-22T21:08:17.659Z,4.03
2022-10-22T21:10:46.431Z,4.25
2022-10-22T21:13:14.007Z,3.58
2022-10-22T21:15:40.825Z,3.60
2022-10-22T21:18:08.251Z,3.60
2022-10-22T21:20:35.069Z,3.33
2022-10-22T21:23:01.998Z,3.88
2022-10-22T21:25:28.916Z,3.42
2022-10-22T21:27:55.787Z,3.10
2022-10-22T21:30:22.598Z,3.22
2022-10-22T21:32:49.379Z,3.28
2022-10-22T21:35:16.171Z,2.95
2022-10-22T21:37:43.140Z,3.10
2022-10-22T21:40:10.350Z,3.10
2022-10-22T21:42:37.445Z,3.80
2022-10-22T21:45:06.171Z,2.88
2022-10-22T21:47:35.899Z,2.95
2022-10-22T21:50:02.763Z,2.83
2022-10-22T21:52:29.787Z,3.10
2022-10-22T21:54:56.521Z,2.83
2022-10-22T21:57:23.300Z,3.03
2022-10-22T21:59:50.078Z,3.20
2022-10-22T22:02:16.936Z,3.10
2022-10-22T22:04:43.763Z,3.03
2022-10-22T22:07:10.527Z,3.22
2022-10-22T22:09:37.339Z,3.20
2022-10-22T22:12:04.180Z,3.30
2022-10-22T22:14:32.689Z,3.58
2022-10-22T22:16:59.480Z,3.20
2022-10-22T22:19:26.232Z,3.22
2022-10-22T22:21:53.062Z,3.63
2022-10-22T22:24:19.832Z,3.50
2022-10-22T22:26:46.623Z,3.92
2022-10-22T22:29:13.424Z,3.33
2022-10-22T22:31:40.318Z,3.90
2022-10-22T22:34:08.527Z,3.38
2022-10-22T22:36:37.063Z,3.63
2022-10-22T22:39:04.973Z,3.10
2022-10-22T22:41:31.770Z,3.35
2022-10-22T22:43:58.652Z,3.60
2022-10-22T22:46:25.595Z,3.85
2022-10-22T22:48:52.550Z,3.85
2022-10-22T22:51:19.329Z,3.83
2022-10-22T22:53:46.126Z,5.05
2022-10-22T22:56:21.358Z,5.85
2022-10-22T22:58:48.583Z,5.75
2022-10-22T23:01:15.453Z,6.05
2022-10-22T23:03:42.708Z,5.82
2022-10-22T23:06:09.962Z,5.65
2022-10-22T23:08:36.790Z,6.43
2022-10-22T23:11:04.725Z,7.45
2022-10-22T23:13:31.525Z,7.57
2022-10-22T23:15:58.285Z,8.95
2022-10-22T23:18:25.337Z,9.13
2022-10-22T23:20:52.568Z,8.77
2022-10-22T23:23:19.328Z,8.50
2022-10-22T23:25:46.134Z,8.30
2022-10-22T23:28:12.918Z,8.27
2022-10-22T23:30:44.258Z,8.23
2022-10-22T23:35:41.507Z,7.32
2022-10-22T23:38:08.446Z,6.70
2022-10-22T23:40:35.235Z,6.40
2022-10-22T23:43:02.077Z,6.35
2022-10-22T23:45:28.919Z,5.72
2022-10-22T23:47:55.764Z,6.20
2022-10-22T23:50:22.589Z,5.07
2022-10-22T23:52:49.394Z,5.07
2022-10-22T23:55:16.190Z,4.78
2022-10-22T23:57:42.940Z,5.10
